createdAt,value
2024-01-26T06:49:22.852Z,0.95
2024-01-26T07:01:14.537Z,0.67
2024-01-26T09:11:53.788Z,0.40
2024-01-26T09:14:21.288Z,0.52
2024-01-26T09:16:52.874Z,2.28
2024-01-26T09:19:27.019Z,1.67
2024-01-26T09:22:07.878Z,1.20
2024-01-26T09:24:45.602Z,1.20
2024-01-26T09:27:27.501Z,2.25
2024-01-26T09:29:57.828Z,3.55
2024-01-26T09:32:32.833Z,3.40
2024-01-26T09:35:18.581Z,2.88
2024-01-26T09:37:49.698Z,3.03
2024-01-26T09:40:31.352Z,2.75
2024-01-26T09:43:17.196Z,4.93
2024-01-26T09:46:25.438Z,2.22
2024-01-26T09:52:11.650Z,2.55
2024-01-26T09:54:50.854Z,2.47
2024-01-26T09:57:24.632Z,1.67
2024-01-26T09:59:58.386Z,1.17
2024-01-26T10:02:32.386Z,2.08
2024-01-26T10:05:07.755Z,1.45
2024-01-26T10:07:42.816Z,2.22
2024-01-26T10:10:13.562Z,3.03
2024-01-26T10:12:46.591Z,1.63
2024-01-26T10:17:57.175Z,1.60
2024-01-26T10:20:31.379Z,2.10
2024-01-26T10:22:58.589Z,1.58
2024-01-26T10:25:37.486Z,2.65
2024-01-26T10:31:08.630Z,2.40
2024-01-26T10:33:48.081Z,2.28
2024-01-26T10:38:59.090Z,3.10
2024-01-26T10:41:27.128Z,2.28
2024-01-26T10:43:56.784Z,2.33
2024-01-26T10:51:44.027Z,1.63
2024-01-26T10:54:19.823Z,2.05
2024-01-26T10:56:53.210Z,1.27
2024-01-26T10:59:21.606Z,1.73
2024-01-26T11:07:48.488Z,1.33
2024-01-26T11:10:30.892Z,3.00
2024-01-26T11:13:11.748Z,2.97
2024-01-26T11:15:47.906Z,1.75
2024-01-26T11:18:30.240Z,3.58
2024-01-26T11:21:11.847Z,1.52
2024-01-26T11:23:42.927Z,1.40
2024-01-26T11:26:24.580Z,2.72
2024-01-26T11:29:01.183Z,1.27
2024-01-26T11:31:43.433Z,5.63
2024-01-26T11:34:33.164Z,4.15
2024-01-26T11:37:18.044Z,2.20
2024-01-26T11:39:54.753Z,3.67
2024-01-26T11:42:28.597Z,4.57
2024-01-26T11:45:17.999Z,5.38
2024-01-26T11:48:03.972Z,8.45
2024-01-26T11:50:31.344Z,3.78
2024-01-26T11:55:40.901Z,2.00
2024-01-26T12:00:45.324Z,2.22
2024-01-26T12:03:25.984Z,2.72
2024-01-26T12:05:59.602Z,1.98
2024-01-26T12:08:39.739Z,2.95
2024-01-26T12:11:42.211Z,2.08
2024-01-26T12:14:27.385Z,3.67
2024-01-26T12:17:03.476Z,2.88
2024-01-26T12:19:40.512Z,2.63
2024-01-26T12:22:16.016Z,1.90
2024-01-26T12:24:46.771Z,3.60
2024-01-26T12:29:52.762Z,2.22
2024-01-26T12:32:31.576Z,2.03
2024-01-26T14:54:57.528Z,1.77
2024-01-26T18:47:57.012Z,2.95
2024-01-26T21:02:33.834Z,8.90
2024-01-26T21:05:25.337Z,10.45
2024-01-26T21:08:09.924Z,8.60
2024-01-26T21:10:50.061Z,9.35
2024-01-26T21:13:33.773Z,9.00
2024-01-26T21:16:15.105Z,9.88
